Clyde, Missouri
Current Conditions -  °F | °C
As of 11:15 AM on Sunday 21 Dec 2014 (Local Time) from KICL Reporting Station
Overcast Overcast  
Wind Chill: 34°   Ceiling: 900
Heat Index: 41°   Visibility: 7mi
Dew Point: 37°   Wind: 13mph
Humidity: 87%   Direction: 190°S
Pressure: 29.93"   Gusts: NA
Location:  40.27°N, 94.67°W
Report Text: KICL 211715Z AUTO 19011KT 7SM OVC009 05/03 A2993 RMK AO2
Loading
Personal Weather Stations






























Interactive Weather Map New forecast layout! Learn more

10-Day Weather Forecast

Advertisements
Track Severe Weather on mobile